Time;durP1;ratioP1;P1;durP2;ratioP2;P2;SDS_P1;SDS_P2;PMS_P1;PMS_P2;Temp;Humidity;BMP_temperature;BMP_pressure;BME280_temperature;BME280_humidity;BME280_pressure;Samples;Min_cycle;Max_cycle;Signal;HPM_P1;HPM_P2
2021/12/23 00:01:09;;;;;;;;;;;;;;;6.41;51.31;101680.69;5081642;28;19923;-85
2021/12/23 00:03:34;;;;;;;;;;;;;;;5.71;53.09;101694.25;5061736;28;19922;-86
2021/12/23 00:06:00;;;;;;;;;;;;;;;6.50;50.79;101700.22;5062207;28;19920;-86
2021/12/23 00:08:25;;;;;;;;;;;;;;;6.51;50.70;101707.38;5060884;28;19931;-86
2021/12/23 00:10:51;;;;;;;;;;;;;;;6.33;52.46;101688.88;5059871;28;19917;-85
2021/12/23 00:13:17;;;;;;;;;;;;;;;6.62;51.03;101692.88;5061489;28;19916;-86
2021/12/23 00:23:53;;;;;;;;;;;;;;;6.50;51.38;101684.09;5078799;28;19984;-86
2021/12/23 00:26:18;;;;;;;;;;;;;;;6.16;51.68;101667.63;5061511;28;19928;-87
2021/12/23 00:28:43;;;;;;;;;;;;;;;6.46;51.04;101662.66;5061469;28;19916;-87
2021/12/23 00:31:08;;;;;;;;;;;;;;;6.88;50.40;101669.09;5063683;28;19952;-86
2021/12/23 00:33:35;;;;;;;;;;;;;;;7.41;48.40;101659.94;5082393;28;19923;-87
2021/12/23 00:36:01;;;;;;;;;;;;;;;7.00;48.91;101654.50;5063939;28;19917;-84
2021/12/23 00:38:30;;;;;;;;;;;;;;;6.97;49.22;101642.91;5062217;28;20011;-84
2021/12/23 00:40:57;;;;;;;;;;;;;;;6.45;50.13;101636.72;5063711;28;19916;-84
2021/12/23 00:43:23;;;;;;;;;;;;;;;6.05;51.85;101640.97;5056766;28;19921;-84
2021/12/23 00:45:48;;;;;;;;;;;;;;;7.63;48.77;101660.38;5063568;28;19947;-86
2021/12/23 00:48:14;;;;;;;;;;;;;;;6.93;48.83;101642.09;5055808;28;20034;-84
2021/12/23 00:50:39;;;;;;;;;;;;;;;6.30;51.18;101640.56;5060508;28;19974;-83
2021/12/23 00:53:07;;;;;;;;;;;;;;;6.88;49.40;101617.09;5060278;28;19917;-82
2021/12/23 00:55:33;;;;;;;;;;;;;;;6.73;50.24;101604.81;5065380;28;19920;-82
2021/12/23 00:57:59;;;;;;;;;;;;;;;7.24;48.85;101609.19;5067539;28;19979;-83
2021/12/23 01:00:25;;;;;;;;;;;;;;;6.91;49.15;101609.84;5063784;28;19916;-84
2021/12/23 01:02:51;;;;;;;;;;;;;;;6.55;50.10;101598.91;5059053;28;20003;-83
2021/12/23 01:05:17;;;;;;;;;;;;;;;6.35;50.96;101593.00;5060971;28;19932;-83
2021/12/23 01:07:42;;;;;;;;;;;;;;;6.60;48.63;101600.59;5077898;28;19927;-84
2021/12/23 01:10:08;;;;;;;;;;;;;;;6.34;50.17;101610.03;5059484;28;19921;-83
2021/12/23 01:12:44;;;;;;;;;;;;;;;6.36;49.89;101592.09;5037818;28;20050;-83
2021/12/23 01:17:59;;;;;;;;;;;;;;;6.00;51.55;101600.75;5074410;28;19924;-83
2021/12/23 01:20:28;;;;;;;;;;;;;;;6.33;50.03;101597.53;5059510;28;20019;-83
2021/12/23 01:22:55;;;;;;;;;;;;;;;6.40;49.18;101588.41;5082155;28;20301;-84
2021/12/23 01:25:21;;;;;;;;;;;;;;;6.85;48.14;101592.94;5082318;28;19913;-84
2021/12/23 01:27:46;;;;;;;;;;;;;;;6.44;49.40;101591.94;5063364;28;19916;-83
2021/12/23 01:30:13;;;;;;;;;;;;;;;6.45;49.41;101594.59;5084592;28;19943;-82
2021/12/23 01:32:39;;;;;;;;;;;;;;;6.26;49.53;101585.97;5064737;28;19916;-84
2021/12/23 01:35:04;;;;;;;;;;;;;;;5.96;51.23;101587.34;5063306;28;19917;-83
2021/12/23 01:37:29;;;;;;;;;;;;;;;5.80;51.42;101573.31;5062282;28;20370;-83
2021/12/23 01:39:55;;;;;;;;;;;;;;;6.07;50.42;101577.38;5062123;28;19920;-83
2021/12/23 01:42:20;;;;;;;;;;;;;;;5.74;51.83;101579.66;5063114;28;19916;-84
2021/12/23 01:44:45;;;;;;;;;;;;;;;5.68;51.96;101587.81;5062135;28;19940;-84
2021/12/23 01:47:10;;;;;;;;;;;;;;;5.43;51.85;101581.91;5062883;28;19916;-84
2021/12/23 01:49:36;;;;;;;;;;;;;;;5.55;52.17;101584.41;5080446;28;19920;-84
2021/12/23 01:52:01;;;;;;;;;;;;;;;5.50;52.47;101580.91;5062549;28;19923;-83
2021/12/23 01:54:26;;;;;;;;;;;;;;;5.06;53.32;101587.78;5062178;28;19991;-83
2021/12/23 01:56:51;;;;;;;;;;;;;;;5.44;53.37;101568.47;5062464;28;19922;-82
2021/12/23 01:59:17;;;;;;;;;;;;;;;5.49;52.27;101566.59;5080737;28;19967;-84
2021/12/23 02:01:44;;;;;;;;;;;;;;;5.77;51.82;101565.31;5062291;28;19916;-82
2021/12/23 02:04:09;;;;;;;;;;;;;;;5.26;53.03;101545.47;5063217;28;19917;-84
2021/12/23 02:06:34;;;;;;;;;;;;;;;4.93;54.45;101534.28;5062540;28;20440;-82
2021/12/23 02:08:59;;;;;;;;;;;;;;;5.36;52.91;101531.91;5065434;28;19924;-83
2021/12/23 02:11:25;;;;;;;;;;;;;;;4.59;55.14;101512.41;5065184;28;19982;-84
2021/12/23 02:13:50;;;;;;;;;;;;;;;4.62;55.68;101512.38;5066591;28;19917;-83
2021/12/23 02:16:15;;;;;;;;;;;;;;;4.29;57.74;101518.97;5066544;28;20006;-85
2021/12/23 02:18:41;;;;;;;;;;;;;;;4.89;55.10;101502.19;5065238;28;20327;-83
2021/12/23 02:21:06;;;;;;;;;;;;;;;5.02;54.01;101492.19;5065715;28;19916;-83
2021/12/23 02:23:31;;;;;;;;;;;;;;;4.76;55.44;101507.72;5066159;28;20011;-82
2021/12/23 02:25:57;;;;;;;;;;;;;;;4.87;54.71;101512.94;5066165;28;19921;-83
2021/12/23 02:28:23;;;;;;;;;;;;;;;5.54;53.61;101503.91;5083337;28;19916;-83
2021/12/23 02:30:52;;;;;;;;;;;;;;;5.67;52.92;101500.13;5065528;28;19924;-84
2021/12/23 02:33:18;;;;;;;;;;;;;;;4.86;55.22;101500.44;5064563;28;19920;-83
2021/12/23 02:35:43;;;;;;;;;;;;;;;4.99;54.53;101503.84;5065637;28;19916;-82
2021/12/23 02:38:08;;;;;;;;;;;;;;;4.42;56.16;101504.56;5085627;28;19925;-82
2021/12/23 02:40:36;;;;;;;;;;;;;;;4.75;56.06;101503.25;5086707;28;19923;-83
2021/12/23 02:43:22;;;;;;;;;;;;;;;5.02;54.94;101500.25;5069047;28;19939;-82
2021/12/23 02:45:48;;;;;;;;;;;;;;;4.91;56.20;101498.59;5071650;28;19916;-82
2021/12/23 02:48:17;;;;;;;;;;;;;;;4.99;55.00;101485.06;5085302;28;19917;-82
2021/12/23 02:50:44;;;;;;;;;;;;;;;5.36;54.85;101486.31;5065539;28;19979;-83
2021/12/23 02:53:10;;;;;;;;;;;;;;;4.82;56.02;101485.31;5065135;28;19991;-84
2021/12/23 02:55:35;;;;;;;;;;;;;;;4.79;57.62;101472.81;5083355;28;19948;-84
2021/12/23 02:58:00;;;;;;;;;;;;;;;4.92;56.81;101476.25;5082092;28;19923;-83
2021/12/23 03:00:26;;;;;;;;;;;;;;;5.06;56.51;101469.78;5064947;28;19917;-83
2021/12/23 03:02:51;;;;;;;;;;;;;;;4.39;59.94;101467.09;5065160;28;19920;-83
2021/12/23 03:05:16;;;;;;;;;;;;;;;4.89;57.94;101461.97;5065453;28;19917;-84
2021/12/23 03:07:41;;;;;;;;;;;;;;;4.96;57.45;101466.34;5065678;28;19916;-84
2021/12/23 03:10:07;;;;;;;;;;;;;;;4.85;57.67;101463.81;5064695;28;19917;-82
2021/12/23 03:12:33;;;;;;;;;;;;;;;5.11;57.14;101462.56;5082725;28;19923;-82
2021/12/23 03:14:59;;;;;;;;;;;;;;;4.83;58.20;101468.31;5064875;28;19917;-82
2021/12/23 03:17:24;;;;;;;;;;;;;;;4.51;59.73;101452.66;5066038;28;20035;-84
2021/12/23 03:19:49;;;;;;;;;;;;;;;5.54;56.24;101444.88;5064234;28;19935;-84
2021/12/23 03:22:14;;;;;;;;;;;;;;;5.05;57.04;101438.50;5065422;28;19916;-85
2021/12/23 03:24:40;;;;;;;;;;;;;;;5.06;57.19;101419.72;5083187;28;19924;-83
2021/12/23 03:27:05;;;;;;;;;;;;;;;4.32;60.05;101411.81;5064771;28;19923;-83
2021/12/23 03:29:30;;;;;;;;;;;;;;;5.03;58.29;101410.81;5064465;28;20519;-83
2021/12/23 03:31:55;;;;;;;;;;;;;;;5.55;56.86;101414.44;5082466;28;20366;-82
2021/12/23 03:34:22;;;;;;;;;;;;;;;4.93;57.93;101416.31;5064928;28;22443;-82
2021/12/23 03:36:48;;;;;;;;;;;;;;;5.31;57.76;101411.25;5065014;28;20290;-84
2021/12/23 03:39:13;;;;;;;;;;;;;;;4.84;58.56;101416.47;5064972;28;19925;-84
2021/12/23 03:41:39;;;;;;;;;;;;;;;5.16;57.85;101407.03;5083126;28;19923;-83
2021/12/23 03:44:04;;;;;;;;;;;;;;;5.57;56.50;101413.53;5082671;28;19920;-82
2021/12/23 03:46:29;;;;;;;;;;;;;;;5.29;56.21;101429.19;5082323;28;19916;-83
2021/12/23 03:48:54;;;;;;;;;;;;;;;6.12;53.95;101422.34;5064104;28;20426;-83
2021/12/23 03:51:20;;;;;;;;;;;;;;;5.85;55.27;101429.13;5064939;28;19917;-83
2021/12/23 03:53:45;;;;;;;;;;;;;;;6.14;53.60;101425.00;5064999;28;20362;-82
2021/12/23 03:56:10;;;;;;;;;;;;;;;5.66;55.18;101407.97;5065488;28;19971;-82
2021/12/23 03:58:36;;;;;;;;;;;;;;;5.51;55.71;101429.72;5069657;28;19905;-82
2021/12/23 04:01:01;;;;;;;;;;;;;;;5.11;56.52;101427.69;5088938;28;19992;-83
2021/12/23 04:03:27;;;;;;;;;;;;;;;5.45;55.67;101429.81;5065403;28;19924;-84
2021/12/23 04:05:52;;;;;;;;;;;;;;;5.26;55.38;101429.25;5065782;28;19959;-84
2021/12/23 04:08:17;;;;;;;;;;;;;;;5.46;56.39;101440.50;5064923;28;19920;-83
2021/12/23 04:10:43;;;;;;;;;;;;;;;5.16;56.45;101439.22;5064820;28;19927;-84
2021/12/23 04:13:08;;;;;;;;;;;;;;;5.80;55.61;101429.19;5064574;28;19922;-83
2021/12/23 04:15:33;;;;;;;;;;;;;;;5.64;55.76;101419.66;5064286;28;19916;-82
2021/12/23 04:17:59;;;;;;;;;;;;;;;6.49;52.97;101410.84;5063383;28;19985;-84
2021/12/23 04:20:32;;;;;;;;;;;;;;;6.79;51.24;101421.81;5063385;28;19916;-84
2021/12/23 04:22:57;;;;;;;;;;;;;;;7.26;51.12;101424.31;5063872;28;20361;-84
2021/12/23 04:25:24;;;;;;;;;;;;;;;7.06;51.40;101414.91;5081955;28;20101;-85
2021/12/23 04:27:51;;;;;;;;;;;;;;;7.00;51.15;101407.00;5064221;28;19924;-83
2021/12/23 04:30:16;;;;;;;;;;;;;;;6.52;51.76;101396.44;5063697;28;19916;-82
2021/12/23 04:32:42;;;;;;;;;;;;;;;6.87;51.80;101410.88;5064290;28;19900;-83
2021/12/23 04:35:08;;;;;;;;;;;;;;;6.93;51.61;101410.78;5082582;28;19920;-83
2021/12/23 04:37:33;;;;;;;;;;;;;;;6.51;52.91;101409.00;5062504;28;19986;-83
2021/12/23 04:39:58;;;;;;;;;;;;;;;5.70;54.71;101407.91;5063023;28;19924;-85
2021/12/23 04:42:24;;;;;;;;;;;;;;;6.47;53.02;101391.16;5063818;28;19920;-83
2021/12/23 04:44:49;;;;;;;;;;;;;;;7.25;51.08;101375.00;5062948;28;19920;-84
2021/12/23 04:47:14;;;;;;;;;;;;;;;6.95;51.71;101382.03;5063215;28;19917;-83
2021/12/23 04:49:39;;;;;;;;;;;;;;;7.54;50.29;101376.06;5062984;28;19904;-85
2021/12/23 04:52:05;;;;;;;;;;;;;;;6.70;51.69;101376.31;5081572;28;19923;-84
2021/12/23 04:54:30;;;;;;;;;;;;;;;6.34;53.25;101368.16;5061771;28;19923;-83
2021/12/23 04:56:55;;;;;;;;;;;;;;;6.12;54.81;101367.75;5063531;28;20380;-83
2021/12/23 04:59:21;;;;;;;;;;;;;;;6.35;54.09;101370.81;5063374;28;19981;-84
2021/12/23 05:01:46;;;;;;;;;;;;;;;6.09;55.26;101373.19;5064171;28;19923;-83
2021/12/23 05:04:12;;;;;;;;;;;;;;;6.00;54.69;101372.44;5064162;28;19959;-84
2021/12/23 05:06:37;;;;;;;;;;;;;;;5.88;55.04;101358.38;5063289;28;19920;-84
2021/12/23 05:09:02;;;;;;;;;;;;;;;6.52;54.36;101369.56;5063955;28;19919;-84
2021/12/23 05:11:27;;;;;;;;;;;;;;;6.92;51.84;101349.81;5062495;28;19928;-82
2021/12/23 05:13:53;;;;;;;;;;;;;;;6.49;53.06;101348.13;5062722;28;19924;-84
2021/12/23 05:16:18;;;;;;;;;;;;;;;6.20;54.15;101338.91;5064069;28;19939;-83
2021/12/23 05:18:43;;;;;;;;;;;;;;;6.27;54.26;101342.38;5063708;28;20389;-84
2021/12/23 05:21:09;;;;;;;;;;;;;;;6.02;54.46;101338.41;5063461;28;19916;-82
2021/12/23 05:23:35;;;;;;;;;;;;;;;6.10;54.99;101326.59;5064038;28;20454;-84
2021/12/23 05:26:00;;;;;;;;;;;;;;;6.35;55.08;101326.94;5062798;28;19975;-85
2021/12/23 05:28:26;;;;;;;;;;;;;;;7.03;52.42;101325.34;5080438;28;20371;-83
2021/12/23 05:30:51;;;;;;;;;;;;;;;6.01;54.92;101316.94;5063374;28;19939;-82
2021/12/23 05:33:16;;;;;;;;;;;;;;;6.06;55.16;101316.84;5062975;28;19912;-83
2021/12/23 05:35:41;;;;;;;;;;;;;;;6.06;55.62;101309.66;5063633;28;20270;-83
2021/12/23 05:38:07;;;;;;;;;;;;;;;6.00;55.86;101309.81;5063784;28;19920;-82
2021/12/23 05:40:33;;;;;;;;;;;;;;;5.44;57.49;101315.34;5064232;28;20016;-83
2021/12/23 05:42:59;;;;;;;;;;;;;;;5.29;58.42;101295.06;5065574;28;19943;-82
2021/12/23 05:45:24;;;;;;;;;;;;;;;6.27;55.29;101296.69;5084452;28;19916;-82
2021/12/23 05:47:49;;;;;;;;;;;;;;;6.05;55.09;101298.97;5085884;28;20374;-82
2021/12/23 05:50:16;;;;;;;;;;;;;;;6.65;54.83;101301.16;5067988;28;19921;-82
2021/12/23 05:52:42;;;;;;;;;;;;;;;5.96;56.56;101298.22;5067876;28;19913;-83
2021/12/23 05:55:09;;;;;;;;;;;;;;;7.12;53.04;101318.84;5067063;28;19947;-82
2021/12/23 05:57:34;;;;;;;;;;;;;;;6.58;54.81;101310.28;5066234;28;20003;-83
2021/12/23 06:00:00;;;;;;;;;;;;;;;5.71;57.33;101305.88;5066524;28;20559;-81
2021/12/23 06:02:25;;;;;;;;;;;;;;;6.23;55.77;101305.72;5065859;28;19924;-83
2021/12/23 06:04:51;;;;;;;;;;;;;;;6.30;55.07;101302.88;5066197;28;20451;-82
2021/12/23 06:07:16;;;;;;;;;;;;;;;6.69;54.35;101288.53;5066195;28;19924;-84
2021/12/23 06:09:41;;;;;;;;;;;;;;;7.40;51.68;101284.91;5066551;28;19928;-82
2021/12/23 06:12:07;;;;;;;;;;;;;;;7.65;51.14;101280.63;5067058;28;19905;-83
2021/12/23 06:14:36;;;;;;;;;;;;;;;7.34;52.09;101278.81;5066682;28;19968;-83
2021/12/23 06:17:02;;;;;;;;;;;;;;;7.49;52.19;101272.09;5066758;28;20006;-82
2021/12/23 06:19:27;;;;;;;;;;;;;;;7.00;53.15;101272.50;5065514;28;19923;-82
2021/12/23 06:21:52;;;;;;;;;;;;;;;6.20;55.29;101283.41;5084144;28;19916;-83
2021/12/23 06:24:18;;;;;;;;;;;;;;;7.12;54.29;101294.63;5064992;28;19917;-83
2021/12/23 06:26:43;;;;;;;;;;;;;;;7.08;53.25;101297.41;5083612;28;20011;-83
2021/12/23 06:29:08;;;;;;;;;;;;;;;7.04;53.03;101289.47;5066075;28;20374;-84
2021/12/23 06:31:34;;;;;;;;;;;;;;;6.61;53.93;101299.44;5065306;28;19916;-83
2021/12/23 06:33:59;;;;;;;;;;;;;;;6.84;54.06;101288.16;5065415;28;20354;-84
2021/12/23 06:36:24;;;;;;;;;;;;;;;7.69;51.56;101282.31;5065301;28;19916;-83
2021/12/23 06:38:49;;;;;;;;;;;;;;;6.79;53.70;101287.38;5065845;28;19920;-83
2021/12/23 06:41:17;;;;;;;;;;;;;;;7.27;53.31;101265.50;5065331;28;19924;-83
2021/12/23 06:43:43;;;;;;;;;;;;;;;6.92;54.24;101270.00;5065317;28;19917;-84
2021/12/23 06:46:08;;;;;;;;;;;;;;;6.26;55.46;101266.22;5065782;28;19900;-84
2021/12/23 06:48:33;;;;;;;;;;;;;;;6.55;55.06;101262.88;5066234;28;19916;-85
2021/12/23 06:50:59;;;;;;;;;;;;;;;6.76;54.49;101251.63;5065627;28;20044;-87
2021/12/23 06:53:25;;;;;;;;;;;;;;;5.91;55.92;101243.69;5067092;28;19939;-86
2021/12/23 06:55:51;;;;;;;;;;;;;;;6.25;55.62;101237.63;5085737;28;19916;-82
2021/12/23 06:58:17;;;;;;;;;;;;;;;6.62;55.77;101241.22;5069373;28;19921;-82
2021/12/23 07:00:43;;;;;;;;;;;;;;;5.87;56.61;101252.72;5068608;28;19969;-83
2021/12/23 07:03:09;;;;;;;;;;;;;;;6.72;54.28;101254.38;5062121;28;19931;-84
2021/12/23 07:05:34;;;;;;;;;;;;;;;5.98;56.84;101247.19;5062332;28;19916;-84
2021/12/23 07:08:09;;;;;;;;;;;;;;;6.55;55.34;101248.53;5061257;28;20400;-83
2021/12/23 07:10:37;;;;;;;;;;;;;;;6.71;55.25;101260.69;5060955;28;19924;-84
2021/12/23 07:13:02;;;;;;;;;;;;;;;7.37;52.68;101260.75;5079859;28;19913;-84
2021/12/23 07:15:29;;;;;;;;;;;;;;;7.27;53.93;101259.25;5062166;28;19971;-84
2021/12/23 07:17:55;;;;;;;;;;;;;;;6.93;54.25;101270.91;5062022;28;19923;-83
2021/12/23 07:20:21;;;;;;;;;;;;;;;6.87;53.65;101271.94;5079485;28;19916;-83
2021/12/23 07:22:46;;;;;;;;;;;;;;;6.70;54.40;101277.75;5079527;28;19917;-84
2021/12/23 07:25:13;;;;;;;;;;;;;;;7.04;53.96;101267.94;5079510;28;20011;-85
2021/12/23 07:27:38;;;;;;;;;;;;;;;6.66;56.11;101272.50;5060918;28;19967;-83
2021/12/23 07:30:04;;;;;;;;;;;;;;;6.84;55.03;101271.13;5061361;28;19917;-85
2021/12/23 07:32:29;;;;;;;;;;;;;;;7.39;52.93;101264.28;5062082;28;19917;-83
2021/12/23 07:34:54;;;;;;;;;;;;;;;6.76;54.59;101273.13;5061329;28;19968;-83
2021/12/23 07:37:20;;;;;;;;;;;;;;;6.78;54.73;101269.50;5060972;28;19916;-82
2021/12/23 07:39:48;;;;;;;;;;;;;;;6.83;55.33;101262.19;5060526;28;19925;-83
2021/12/23 07:42:16;;;;;;;;;;;;;;;6.65;55.47;101257.28;5061401;28;19920;-83
2021/12/23 07:44:42;;;;;;;;;;;;;;;6.35;57.52;101239.16;5079178;28;20290;-83
2021/12/23 07:47:08;;;;;;;;;;;;;;;6.50;56.34;101235.19;5060617;28;20518;-86
2021/12/23 07:49:33;;;;;;;;;;;;;;;6.00;57.86;101223.84;5063580;28;19917;-84
2021/12/23 07:51:58;;;;;;;;;;;;;;;6.17;58.65;101208.22;5078671;28;19920;-84
2021/12/23 07:54:23;;;;;;;;;;;;;;;6.81;55.39;101207.56;5061142;28;20374;-84
2021/12/23 07:56:49;;;;;;;;;;;;;;;6.42;56.18;101233.66;5060106;28;19931;-84
2021/12/23 07:59:14;;;;;;;;;;;;;;;6.52;56.83;101235.16;5061275;28;20019;-86
2021/12/23 08:01:39;;;;;;;;;;;;;;;7.03;56.20;101224.00;5060452;28;19917;-84
2021/12/23 08:04:06;;;;;;;;;;;;;;;7.02;55.50;101221.34;5048540;28;19920;-85
2021/12/23 08:06:31;;;;;;;;;;;;;;;7.02;56.04;101222.25;5052439;28;20366;-86
2021/12/23 08:09:02;;;;;;;;;;;;;;;6.83;55.20;101219.16;5056443;28;19939;-86
2021/12/23 08:11:27;;;;;;;;;;;;;;;6.45;56.25;101220.13;5079224;28;19917;-85
2021/12/23 08:13:52;;;;;;;;;;;;;;;6.82;55.34;101212.00;5061803;28;19916;-86
2021/12/23 08:16:19;;;;;;;;;;;;;;;6.65;55.26;101211.56;5060623;28;19990;-86
2021/12/23 08:18:44;;;;;;;;;;;;;;;6.26;56.85;101201.75;5045971;28;20015;-85
2021/12/23 08:21:09;;;;;;;;;;;;;;;5.99;57.18;101206.88;5047244;28;19994;-84
2021/12/23 08:23:35;;;;;;;;;;;;;;;6.25;58.56;101205.38;5061087;28;19916;-84
2021/12/23 08:26:04;;;;;;;;;;;;;;;6.15;57.56;101195.75;5062297;28;19966;-86
2021/12/23 08:28:30;;;;;;;;;;;;;;;6.28;57.36;101186.50;5046359;28;19932;-85
2021/12/23 08:30:55;;;;;;;;;;;;;;;6.33;57.79;101176.50;5074522;28;19960;-85
2021/12/23 08:33:20;;;;;;;;;;;;;;;6.99;55.61;101168.53;5057429;28;19901;-85
2021/12/23 08:35:46;;;;;;;;;;;;;;;6.62;56.07;101172.19;5063571;28;20304;-84
2021/12/23 08:38:11;;;;;;;;;;;;;;;6.24;58.53;101171.38;5049494;28;19932;-84
2021/12/23 08:40:36;;;;;;;;;;;;;;;5.81;59.00;101161.59;5038762;28;20255;-84
2021/12/23 08:43:02;;;;;;;;;;;;;;;5.75;59.10;101156.34;5056023;28;19966;-83
2021/12/23 08:45:28;;;;;;;;;;;;;;;6.03;59.44;101149.47;5055875;28;19917;-83
2021/12/23 08:47:54;;;;;;;;;;;;;;;6.10;58.38;101150.22;5048834;28;20340;-82
2021/12/23 08:50:20;;;;;;;;;;;;;;;5.96;59.98;101145.16;5048292;28;19968;-84
2021/12/23 08:52:46;;;;;;;;;;;;;;;6.85;56.57;101131.22;5069047;28;20006;-84
2021/12/23 08:55:12;;;;;;;;;;;;;;;5.83;59.58;101131.09;5050743;28;20392;-82
2021/12/23 08:57:37;;;;;;;;;;;;;;;5.78;59.57;101118.69;5076592;28;19999;-84
2021/12/23 09:00:07;;;;;;;;;;;;;;;5.99;60.87;101120.94;5055066;28;19963;-83
2021/12/23 09:02:32;;;;;;;;;;;;;;;5.99;59.78;101131.69;5075170;28;19932;-83
2021/12/23 09:04:58;;;;;;;;;;;;;;;6.30;59.19;101122.84;5075961;28;20298;-83
2021/12/23 09:07:23;;;;;;;;;;;;;;;6.24;58.00;101120.31;5059158;28;20425;-84
2021/12/23 09:09:51;;;;;;;;;;;;;;;6.44;58.91;101109.03;5076050;28;20358;-85
2021/12/23 09:12:16;;;;;;;;;;;;;;;6.19;58.64;101111.50;5052056;28;19921;-84
2021/12/23 09:14:41;;;;;;;;;;;;;;;7.04;55.55;101102.03;5053556;28;20392;-85
2021/12/23 09:17:08;;;;;;;;;;;;;;;6.36;57.84;101101.19;5062422;28;19920;-88
2021/12/23 09:19:33;;;;;;;;;;;;;;;6.46;57.41;101103.63;5084037;28;20440;-89
2021/12/23 09:21:58;;;;;;;;;;;;;;;7.16;57.11;101100.78;5065195;28;19920;-87
2021/12/23 09:24:26;;;;;;;;;;;;;;;7.03;56.71;101097.56;5073924;28;20011;-84
2021/12/23 09:26:58;;;;;;;;;;;;;;;6.73;57.49;101094.84;5064313;28;19916;-86
2021/12/23 09:34:49;;;;;;;;;;;;;;;6.51;58.63;101101.72;5081035;28;19966;-85
2021/12/23 09:37:23;;;;;;;;;;;;;;;6.12;60.82;101088.41;5061005;28;19916;-84
2021/12/23 09:39:57;;;;;;;;;;;;;;;6.60;58.84;101079.97;4997321;28;1827443;-84
2021/12/23 09:42:23;;;;;;;;;;;;;;;6.28;59.21;101072.75;5079603;28;19964;-86
2021/12/23 09:44:49;;;;;;;;;;;;;;;5.84;60.38;101086.34;5062669;28;19927;-87
2021/12/23 09:47:14;;;;;;;;;;;;;;;6.32;60.07;101083.38;5063140;28;19920;-86
2021/12/23 09:49:39;;;;;;;;;;;;;;;6.84;57.92;101082.88;5063344;28;19921;-85
2021/12/23 09:52:06;;;;;;;;;;;;;;;6.76;58.16;101085.78;5081737;28;19907;-87
2021/12/23 09:54:32;;;;;;;;;;;;;;;6.10;60.11;101080.38;5063321;28;19923;-85
2021/12/23 09:56:57;;;;;;;;;;;;;;;6.23;60.04;101072.88;5063647;28;19920;-88
2021/12/23 09:59:27;;;;;;;;;;;;;;;6.03;61.33;101066.19;5064292;28;19916;-89
2021/12/23 10:01:52;;;;;;;;;;;;;;;6.20;61.70;101070.25;5091738;28;19916;-85
2021/12/23 10:04:17;;;;;;;;;;;;;;;6.76;58.46;101076.84;5079364;28;19930;-84
2021/12/23 10:06:43;;;;;;;;;;;;;;;6.90;58.14;101066.59;5089533;28;19923;-83
2021/12/23 10:09:08;;;;;;;;;;;;;;;6.69;58.54;101068.94;5065942;28;19927;-88
2021/12/23 10:31:19;;;;;;;;;;;;;;;7.32;56.60;101052.75;5082987;28;19970;-84
2021/12/23 10:33:50;;;;;;;;;;;;;;;7.87;55.61;101044.75;5063596;28;19904;-90
2021/12/23 10:39:19;;;;;;;;;;;;;;;7.34;56.14;101041.97;5080259;28;19943;-86
2021/12/23 10:41:44;;;;;;;;;;;;;;;7.64;55.00;101040.13;5062071;28;19989;-86
2021/12/23 10:44:10;;;;;;;;;;;;;;;7.65;54.82;101033.78;5062594;28;19956;-87
2021/12/23 10:46:37;;;;;;;;;;;;;;;7.39;56.22;101030.09;5060755;28;20267;-84
2021/12/23 10:52:05;;;;;;;;;;;;;;;7.76;54.74;101015.47;5077370;28;20424;-89
2021/12/23 11:00:20;;;;;;;;;;;;;;;7.90;55.77;101030.31;5081153;28;19970;-88
2021/12/23 11:03:01;;;;;;;;;;;;;;;7.05;56.67;101012.34;5062054;28;19904;-85
2021/12/23 11:05:31;;;;;;;;;;;;;;;7.94;54.83;101013.06;5062190;28;19916;-86
2021/12/23 11:08:10;;;;;;;;;;;;;;;7.37;56.79;101023.91;5061831;28;19980;-88
2021/12/23 11:40:58;;;;;;;;;;;;;;;9.40;51.85;100915.94;5078283;28;19916;-87
2021/12/23 11:43:29;;;;;;;;;;;;;;;9.71;51.04;100913.75;5063243;28;19919;-89
2021/12/23 11:45:54;;;;;;;;;;;;;;;9.26;52.10;100909.34;5063521;28;19924;-88
2021/12/23 11:48:20;;;;;;;;;;;;;;;8.46;53.83;100902.56;5062209;28;19916;-86
2021/12/23 11:53:29;;;;;;;;;;;;;;;8.67;54.08;100865.81;5080271;28;19923;-89
2021/12/23 11:55:55;;;;;;;;;;;;;;;8.11;55.44;100865.19;5062840;28;19917;-90
2021/12/23 11:58:25;;;;;;;;;;;;;;;8.69;53.92;100847.72;5062092;28;20381;-89
2021/12/23 12:01:04;;;;;;;;;;;;;;;9.41;53.00;100843.88;5064555;28;19916;-88
2021/12/23 12:03:29;;;;;;;;;;;;;;;8.61;54.36;100855.25;5064251;28;19965;-90
2021/12/23 12:06:11;;;;;;;;;;;;;;;8.17;55.51;100853.31;5055832;28;19931;-89
2021/12/23 12:08:37;;;;;;;;;;;;;;;9.20;53.11;100846.53;5059098;28;19923;-89
2021/12/23 12:11:20;;;;;;;;;;;;;;;8.60;54.81;100850.81;5058175;28;20007;-87
2021/12/23 12:13:45;;;;;;;;;;;;;;;8.70;54.27;100849.50;5042653;28;20341;-87
2021/12/23 12:16:28;;;;;;;;;;;;;;;8.67;53.95;100842.41;5052576;28;19917;-88
2021/12/23 12:18:53;;;;;;;;;;;;;;;8.56;54.31;100849.16;5062501;28;19925;-88
2021/12/23 12:21:23;;;;;;;;;;;;;;;9.42;52.58;100840.25;5061271;28;19938;-89
2021/12/23 12:24:05;;;;;;;;;;;;;;;9.73;51.72;100845.19;5058175;28;19946;-87
2021/12/23 12:26:32;;;;;;;;;;;;;;;9.61;51.04;100839.44;5054832;28;20015;-88
2021/12/23 12:28:59;;;;;;;;;;;;;;;8.95;53.30;100833.22;5078190;28;19920;-88
2021/12/23 12:31:26;;;;;;;;;;;;;;;9.26;51.82;100834.63;5043891;28;19920;-88
2021/12/23 12:34:12;;;;;;;;;;;;;;;8.74;53.57;100828.66;5061711;28;19956;-88
2021/12/23 12:36:58;;;;;;;;;;;;;;;9.47;52.38;100824.72;5055321;28;20110;-90
2021/12/23 12:39:25;;;;;;;;;;;;;;;9.44;52.69;100807.78;5048407;28;19963;-90
2021/12/23 12:41:52;;;;;;;;;;;;;;;10.11;50.96;100812.88;5041524;28;20007;-89
2021/12/23 12:44:28;;;;;;;;;;;;;;;9.92;52.01;100820.94;5041473;28;19917;-89
2021/12/23 12:47:05;;;;;;;;;;;;;;;10.00;50.96;100841.31;5061835;28;20010;-88
2021/12/23 12:49:34;;;;;;;;;;;;;;;9.91;51.76;100838.06;5060946;28;19951;-91
2021/12/23 12:52:07;;;;;;;;;;;;;;;10.03;52.17;100838.47;5061055;28;19916;-87
2021/12/23 12:54:33;;;;;;;;;;;;;;;10.39;50.10;100840.47;5060466;28;19917;-87
2021/12/23 12:57:00;;;;;;;;;;;;;;;10.35;50.88;100838.84;5078468;28;20024;-90
2021/12/23 12:59:28;;;;;;;;;;;;;;;10.44;51.35;100833.88;5078923;28;19952;-88
2021/12/23 13:01:54;;;;;;;;;;;;;;;11.52;48.03;100824.97;5059899;28;19966;-87
2021/12/23 13:04:24;;;;;;;;;;;;;;;10.36;50.21;100816.28;5059989;28;19916;-88
2021/12/23 13:06:50;;;;;;;;;;;;;;;10.48;51.78;100825.59;5059493;28;20286;-88
2021/12/23 13:09:23;;;;;;;;;;;;;;;9.29;54.99;100809.31;5052532;28;19924;-89
2021/12/23 13:11:48;;;;;;;;;;;;;;;10.44;51.08;100806.81;5056308;28;19916;-88
2021/12/23 13:14:20;;;;;;;;;;;;;;;9.31;54.54;100802.03;5079326;28;19920;-89
2021/12/23 13:16:53;;;;;;;;;;;;;;;11.21;49.65;100793.19;5071738;28;19931;-87
2021/12/23 13:19:18;;;;;;;;;;;;;;;11.88;47.78;100794.16;5072790;28;20233;-87
2021/12/23 13:21:48;;;;;;;;;;;;;;;10.75;50.36;100805.34;5068848;28;19984;-90
2021/12/23 13:24:14;;;;;;;;;;;;;;;9.97;53.28;100803.63;5066317;28;19916;-88
2021/12/23 13:26:39;;;;;;;;;;;;;;;10.26;52.38;100805.84;5044221;28;19918;-90
2021/12/23 13:29:07;;;;;;;;;;;;;;;9.21;56.31;100805.13;5059784;28;19924;-89
2021/12/23 13:31:33;;;;;;;;;;;;;;;9.83;53.89;100791.63;5041703;28;19917;-90
2021/12/23 13:33:58;;;;;;;;;;;;;;;9.93;52.72;100803.78;5024394;28;19931;-89
2021/12/23 13:36:41;;;;;;;;;;;;;;;10.11;53.00;100799.34;5072447;28;19925;-90
2021/12/23 13:39:07;;;;;;;;;;;;;;;10.18;52.28;100802.63;5060557;28;19920;-87
2021/12/23 13:41:32;;;;;;;;;;;;;;;9.60;56.19;100806.13;5058248;28;19921;-88
2021/12/23 13:43:58;;;;;;;;;;;;;;;9.12;57.00;100800.13;5044514;28;19917;-90
2021/12/23 13:46:24;;;;;;;;;;;;;;;9.38;56.84;100800.81;5040115;28;19914;-89
2021/12/23 13:48:51;;;;;;;;;;;;;;;8.70;58.86;100798.25;5040223;28;19968;-88
2021/12/23 13:51:18;;;;;;;;;;;;;;;8.93;57.12;100783.81;5039588;28;20400;-89
2021/12/23 13:53:43;;;;;;;;;;;;;;;9.37;55.98;100782.84;5040966;28;19917;-89
2021/12/23 13:56:10;;;;;;;;;;;;;;;9.54;56.88;100777.59;5058903;28;20436;-90
2021/12/23 13:58:35;;;;;;;;;;;;;;;9.78;55.53;100777.44;5040367;28;19960;-89
2021/12/23 14:01:01;;;;;;;;;;;;;;;9.50;55.71;100784.06;5040144;28;19924;-88
2021/12/23 14:03:26;;;;;;;;;;;;;;;9.49;54.68;100782.31;5040983;28;19923;-87